Time;durP1;ratioP1;P1;durP2;ratioP2;P2;SDS_P1;SDS_P2;PMS_P1;PMS_P2;Temp;Humidity;BMP_temperature;BMP_pressure;BME280_temperature;BME280_humidity;BME280_pressure;Samples;Min_cycle;Max_cycle;Signal;HPM_P1;HPM_P2
2024/02/09 00:00:18;;;;;;;9.10;2.85;;;;;;;6.04;89.18;96353.81;4995770;28;20072;-54
2024/02/09 00:02:46;;;;;;;8.38;2.72;;;;;;;6.19;88.49;96358.34;4998637;28;20051;-48
2024/02/09 00:05:16;;;;;;;22.25;3.00;;;;;;;6.27;86.93;96346.00;4997311;28;20054;-56
2024/02/09 00:07:46;;;;;;;24.25;3.92;;;;;;;6.33;87.02;96345.72;4995712;28;20057;-53
2024/02/09 00:10:13;;;;;;;;;;;;;;;6.34;88.30;96337.09;4995380;28;20271;-48
2024/02/09 00:12:41;;;;;;;9.52;3.25;;;;;;;6.43;87.50;96330.72;4997102;28;19925;-57
2024/02/09 00:15:09;;;;;;;9.07;3.33;;;;;;;6.51;87.87;96325.19;4993052;28;20053;-56
2024/02/09 00:17:36;;;;;;;7.43;2.55;;;;;;;6.57;87.07;96317.22;4996651;28;20049;-54
2024/02/09 00:20:07;;;;;;;5.68;2.08;;;;;;;6.64;87.36;96317.75;5000391;28;20781;-55
2024/02/09 00:22:35;;;;;;;8.27;2.95;;;;;;;6.73;87.71;96311.34;4996086;28;20690;-53
2024/02/09 00:25:08;;;;;;;6.40;2.10;;;;;;;6.78;88.62;96304.25;5004189;28;20058;-55
2024/02/09 00:27:36;;;;;;;4.75;2.03;;;;;;;6.85;89.01;96294.50;4994897;28;20546;-57
2024/02/09 00:30:05;;;;;;;7.95;2.83;;;;;;;6.98;91.89;96289.59;4995145;28;20053;-56
2024/02/09 00:32:32;;;;;;;7.80;2.35;;;;;;;7.07;91.41;96294.28;4996328;28;20069;-57
2024/02/09 00:35:03;;;;;;;7.90;2.63;;;;;;;7.18;92.80;96283.47;5000359;28;20050;-56
2024/02/09 00:37:31;;;;;;;8.73;2.88;;;;;;;7.24;92.13;96274.59;4998724;28;20097;-53
2024/02/09 00:39:58;;;;;;;4.43;2.40;;;;;;;7.31;92.73;96265.66;4996301;28;20133;-48
2024/02/09 00:42:25;;;;;;;5.18;2.20;;;;;;;7.35;92.92;96267.19;4999168;28;20050;-57
2024/02/09 00:44:53;;;;;;;4.97;2.05;;;;;;;7.42;93.25;96260.81;4997695;28;20053;-46
2024/02/09 00:47:22;;;;;;;4.35;2.25;;;;;;;7.52;93.09;96252.59;4999111;28;20049;-56
2024/02/09 00:49:49;;;;;;;4.00;1.20;;;;;;;7.57;92.94;96258.38;4998718;28;20133;-53
2024/02/09 00:52:15;;;;;;;1.98;1.20;;;;;;;7.64;92.93;96251.16;5001830;28;20054;-54
2024/02/09 00:54:42;;;;;;;3.00;1.15;;;;;;;7.71;92.64;96250.72;4996833;28;20123;-53
2024/02/09 00:57:09;;;;;;;2.90;1.17;;;;;;;7.74;93.27;96246.34;5000353;28;20065;-52
2024/02/09 00:59:38;;;;;;;1.75;0.95;;;;;;;7.84;92.97;96242.38;4997572;28;20054;-49
2024/02/09 01:02:07;;;;;;;1.17;0.90;;;;;;;7.89;92.63;96240.38;4993119;28;20077;-49
2024/02/09 01:04:35;;;;;;;1.80;1.10;;;;;;;7.94;93.66;96238.38;4999855;28;20052;-58
2024/02/09 01:07:03;;;;;;;1.63;0.75;;;;;;;8.01;92.89;96231.19;4994463;28;20081;-57
2024/02/09 01:09:33;;;;;;;1.98;1.55;;;;;;;8.05;93.95;96234.41;4994123;28;20451;-58
2024/02/09 02:46:37;;;;;;;4.22;1.20;;;;;;;8.96;92.02;96140.81;5060417;27;20411;-49
2024/02/09 03:05:47;;;;;;;7.20;1.38;;;;;;;9.08;90.84;96140.97;4998207;28;20419;-56
2024/02/09 03:08:14;;;;;;;3.92;1.10;;;;;;;9.07;91.21;96141.91;5001513;28;20045;-49
2024/02/09 03:11:00;;;;;;;2.25;1.02;;;;;;;9.10;90.65;96123.66;5018253;28;20137;-56
2024/02/09 03:13:27;;;;;;;5.63;1.15;;;;;;;9.09;91.36;96132.34;5022642;28;20064;-52
2024/02/09 03:15:54;;;;;;;1.52;0.70;;;;;;;9.09;91.38;96137.50;5020269;28;20041;-54
2024/02/09 03:18:24;;;;;;;5.40;3.05;;;;;;;9.11;90.71;96127.91;5022964;28;20050;-52
2024/02/09 03:20:55;;;;;;;4.35;1.25;;;;;;;9.14;90.66;96127.72;5022266;28;20046;-53
2024/02/09 03:23:22;;;;;;;4.50;2.45;;;;;;;9.15;90.51;96131.13;5019751;28;20071;-52
2024/02/09 03:25:48;;;;;;;4.93;1.15;;;;;;;9.17;90.66;96127.53;5020072;28;20359;-56
2024/02/09 03:28:18;;;;;;;3.08;2.08;;;;;;;9.16;90.90;96125.06;5022846;28;20053;-47
2024/02/09 03:30:45;;;;;;;3.72;1.05;;;;;;;9.17;91.08;96109.47;5019823;28;20081;-54
2024/02/09 03:33:12;;;;;;;3.10;2.08;;;;;;;9.18;91.08;96111.13;5018226;28;20083;-57
2024/02/09 03:35:39;;;;;;;4.65;1.35;;;;;;;9.21;91.09;96113.53;5013666;28;20046;-49
2024/02/09 03:38:06;;;;;;;10.23;2.88;;;;;;;9.22;90.76;96107.44;5014654;28;20156;-57
2024/02/09 03:40:32;;;;;;;4.40;1.08;;;;;;;9.25;90.97;96102.09;5014004;28;20522;-50
2024/02/09 03:42:59;;;;;;;5.22;2.05;;;;;;;9.24;90.85;96094.44;5015356;28;20081;-53
2024/02/09 03:45:28;;;;;;;7.88;0.75;;;;;;;9.23;90.91;96087.63;5011449;28;20566;-52
2024/02/09 03:47:56;;;;;;;10.15;1.30;;;;;;;9.25;90.45;96090.91;5015201;28;20052;-50
2024/02/09 03:50:23;;;;;;;5.35;1.67;;;;;;;9.29;90.22;96091.56;5014122;28;20518;-55
2024/02/09 03:52:49;;;;;;;7.28;0.90;;;;;;;9.28;90.37;96085.56;5012667;28;20054;-55
2024/02/09 03:55:17;;;;;;;2.70;1.30;;;;;;;9.28;90.13;96085.56;5014591;28;20049;-55
2024/02/09 03:57:47;;;;;;;5.07;1.35;;;;;;;9.29;90.11;96087.22;5005875;28;20119;-51
2024/02/09 04:00:15;;;;;;;3.47;2.17;;;;;;;9.31;90.63;96087.13;5002336;28;20050;-58
2024/02/09 04:02:45;;;;;;;4.80;0.80;;;;;;;9.29;90.04;96091.56;4999093;28;20057;-56
2024/02/09 04:05:13;;;;;;;9.07;1.27;;;;;;;9.34;90.36;96082.63;5000042;28;20115;-49
2024/02/09 04:07:41;;;;;;;4.88;0.82;;;;;;;9.32;90.04;96083.66;5000613;28;20133;-51
2024/02/09 04:10:09;;;;;;;8.85;1.80;;;;;;;9.33;89.77;96078.38;5000936;28;20510;-57
2024/02/09 04:12:39;;;;;;;4.18;1.27;;;;;;;9.36;90.01;96075.59;4998375;28;20631;-56
2024/02/09 04:15:06;;;;;;;9.95;1.52;;;;;;;9.34;89.80;96068.88;5003927;28;20053;-53
2024/02/09 04:17:32;;;;;;;9.05;1.50;;;;;;;9.37;89.64;96073.84;5000320;28;20076;-51
2024/02/09 04:19:59;;;;;;;7.53;3.17;;;;;;;9.41;89.77;96071.91;5000454;28;20053;-52
2024/02/09 04:22:27;;;;;;;12.90;1.75;;;;;;;9.41;89.43;96070.16;5001739;28;20061;-50
2024/02/09 04:24:54;;;;;;;9.10;1.00;;;;;;;9.38;89.03;96068.59;4998581;28;20049;-53
2024/02/09 04:27:21;;;;;;;5.07;1.33;;;;;;;9.39;88.70;96064.25;5001246;28;20050;-52
2024/02/09 04:29:49;;;;;;;4.32;1.15;;;;;;;9.34;88.96;96068.88;5003605;28;20081;-57
2024/02/09 04:32:17;;;;;;;11.88;1.23;;;;;;;9.33;89.05;96064.63;5004860;28;20053;-55
2024/02/09 04:34:44;;;;;;;2.88;0.55;;;;;;;9.33;88.66;96060.31;5006684;28;20060;-55
2024/02/09 04:37:12;;;;;;;3.22;1.30;;;;;;;9.30;88.44;96057.06;5011428;28;20773;-56
2024/02/09 04:39:41;;;;;;;8.88;2.67;;;;;;;9.30;88.84;96062.25;5006893;28;20046;-60
2024/02/09 04:42:10;;;;;;;7.60;1.48;;;;;;;9.29;88.69;96058.81;5005946;28;20085;-52
2024/02/09 04:44:38;;;;;;;4.40;1.20;;;;;;;9.29;88.94;96055.44;5007514;28;20112;-49
2024/02/09 04:47:05;;;;;;;6.68;1.33;;;;;;;9.29;88.63;96051.06;5007272;28;20045;-54
2024/02/09 04:49:31;;;;;;;4.38;1.00;;;;;;;9.31;88.75;96048.41;5006773;28;20056;-57
2024/02/09 04:52:00;;;;;;;3.53;2.90;;;;;;;9.29;89.07;96055.44;5008496;28;20574;-50
2024/02/09 04:54:26;;;;;;;6.90;2.60;;;;;;;9.30;88.98;96052.75;5008909;28;20049;-53
2024/02/09 04:56:53;;;;;;;5.95;1.50;;;;;;;9.33;88.31;96057.72;5007119;28;20049;-56
2024/02/09 04:59:20;;;;;;;7.85;1.40;;;;;;;9.33;88.78;96067.22;5009127;28;20215;-53
2024/02/09 05:01:48;;;;;;;3.15;1.08;;;;;;;9.29;89.17;96056.22;5008767;28;20049;-58
2024/02/09 05:04:14;;;;;;;7.68;1.65;;;;;;;9.32;88.79;96057.81;5009751;28;20049;-53
2024/02/09 05:06:43;;;;;;;3.20;1.02;;;;;;;9.30;89.08;96057.06;5010306;28;20048;-57
2024/02/09 05:09:11;;;;;;;1.75;0.80;;;;;;;9.30;89.33;96057.06;5004370;28;20132;-58
2024/02/09 05:11:38;;;;;;;9.00;1.08;;;;;;;9.31;88.83;96044.06;5002024;28;20041;-56
2024/02/09 05:14:06;;;;;;;8.15;1.20;;;;;;;9.30;88.54;96046.75;5002871;28;20057;-57
2024/02/09 05:16:38;;;;;;;3.97;0.77;;;;;;;9.30;88.48;96052.75;5002810;28;20054;-57
2024/02/09 05:19:10;;;;;;;7.10;1.23;;;;;;;9.30;88.92;96046.75;5005304;28;20628;-51
2024/02/09 05:21:39;;;;;;;6.60;2.20;;;;;;;9.29;88.57;96039.94;5005064;28;20061;-52
2024/02/09 05:24:07;;;;;;;8.95;3.03;;;;;;;9.25;88.74;96045.28;5002859;28;20125;-55
2024/02/09 05:26:34;;;;;;;6.07;2.72;;;;;;;9.28;89.04;96044.25;5007447;28;20065;-53
2024/02/09 05:29:02;;;;;;;11.02;1.27;;;;;;;9.28;89.06;96048.59;5005264;28;22558;-57
2024/02/09 05:31:30;;;;;;;3.33;2.15;;;;;;;9.26;88.72;96048.69;5003358;28;20140;-53
2024/02/09 05:33:57;;;;;;;7.72;1.15;;;;;;;9.31;88.54;96044.06;4999772;28;20136;-50
2024/02/09 05:36:25;;;;;;;4.82;3.15;;;;;;;9.29;88.85;96040.75;4999778;28;20074;-61
2024/02/09 05:38:54;;;;;;;3.28;0.90;;;;;;;9.35;88.79;96039.53;4997989;28;20108;-54
2024/02/09 05:41:21;;;;;;;5.22;1.13;;;;;;;9.29;88.77;96034.78;4998709;28;20049;-51
2024/02/09 05:43:49;;;;;;;6.10;0.68;;;;;;;9.32;88.82;96039.75;4998552;28;20056;-52
2024/02/09 05:46:17;;;;;;;6.75;2.58;;;;;;;9.32;89.09;96032.81;4998218;28;20045;-54
2024/02/09 05:48:45;;;;;;;4.10;0.93;;;;;;;9.32;88.89;96034.59;4997581;28;20074;-54
2024/02/09 05:51:13;;;;;;;4.97;0.85;;;;;;;9.35;88.81;96029.19;5001337;28;20053;-57
2024/02/09 05:53:41;;;;;;;4.03;1.85;;;;;;;9.31;88.28;96027.75;5003556;28;20064;-57
2024/02/09 05:56:16;;;;;;;5.85;0.65;;;;;;;9.30;88.48;96029.50;5003626;28;20157;-54
2024/02/09 05:58:42;;;;;;;4.22;0.88;;;;;;;9.37;88.26;96027.38;5004089;28;20050;-52
2024/02/09 06:01:11;;;;;;;3.75;2.17;;;;;;;9.35;88.59;96026.63;5004256;28;20136;-54
2024/02/09 06:03:38;;;;;;;5.50;1.83;;;;;;;9.38;88.40;96026.44;5002247;28;20153;-53
2024/02/09 06:06:05;;;;;;;5.72;0.82;;;;;;;9.28;88.05;96017.63;5003147;28;20054;-50
2024/02/09 06:08:33;;;;;;;6.32;1.38;;;;;;;9.32;88.18;96019.91;5004868;28;20072;-57
2024/02/09 06:11:02;;;;;;;1.75;0.60;;;;;;;9.29;88.31;96014.91;5002385;28;20426;-49
2024/02/09 06:13:30;;;;;;;4.63;0.50;;;;;;;9.33;88.44;96021.59;5004481;28;20694;-50
2024/02/09 06:15:58;;;;;;;1.92;0.60;;;;;;;9.32;88.55;96019.09;5005190;28;20042;-57
2024/02/09 06:18:27;;;;;;;5.43;0.82;;;;;;;9.36;88.02;96010.22;5005215;28;20088;-52
2024/02/09 06:20:55;;;;;;;4.65;1.85;;;;;;;9.35;87.74;96013.72;4998895;28;20906;-56
2024/02/09 06:23:23;;;;;;;3.15;2.25;;;;;;;9.35;88.21;96013.72;5005314;28;20054;-55
2024/02/09 06:25:50;;;;;;;4.63;1.92;;;;;;;9.32;87.81;96008.75;5004356;28;20050;-57
2024/02/09 06:28:19;;;;;;;1.05;0.45;;;;;;;9.32;88.22;96009.56;5002416;28;20578;-50
2024/02/09 06:30:47;;;;;;;3.83;1.83;;;;;;;9.32;88.33;96012.16;5005020;28;20497;-54
2024/02/09 06:33:16;;;;;;;1.33;0.45;;;;;;;9.29;88.37;96001.19;5001980;28;20113;-54
2024/02/09 06:35:43;;;;;;;5.03;2.90;;;;;;;9.28;88.67;96002.13;5006676;28;20041;-54
2024/02/09 06:38:11;;;;;;;3.58;0.82;;;;;;;9.26;88.94;96010.78;5001547;28;20058;-57
2024/02/09 06:40:38;;;;;;;3.22;0.70;;;;;;;9.27;88.92;96003.88;5007146;28;20692;-57
2024/02/09 06:43:06;;;;;;;3.97;1.88;;;;;;;9.30;89.02;96010.59;5001872;28;20056;-57
2024/02/09 06:45:35;;;;;;;2.85;1.92;;;;;;;9.31;88.61;96012.25;5001833;28;20056;-61
2024/02/09 06:48:05;;;;;;;1.60;1.50;;;;;;;9.30;88.52;96011.44;5004805;28;20057;-54
2024/02/09 06:50:35;;;;;;;;;;;;;;;9.22;88.47;96004.16;5004003;28;20050;-59
2024/02/09 06:53:05;;;;;;;2.42;0.82;;;;;;;9.22;88.54;96009.31;5004649;28;19929;-55
2024/02/09 06:55:33;;;;;;;0.85;0.60;;;;;;;9.26;88.88;96015.13;5002703;28;20054;-57
2024/02/09 06:58:01;;;;;;;4.55;1.92;;;;;;;9.28;88.40;96012.47;5003830;28;20077;-54
2024/02/09 07:00:28;;;;;;;0.45;0.40;;;;;;;9.30;88.37;96016.59;5005854;28;20119;-50
2024/02/09 07:02:55;;;;;;;2.47;0.43;;;;;;;9.31;88.26;96012.25;5005381;28;20046;-54
2024/02/09 07:05:22;;;;;;;2.53;0.40;;;;;;;9.31;88.26;96012.25;5008272;28;20065;-52
2024/02/09 07:07:50;;;;;;;1.65;0.55;;;;;;;9.31;87.75;96014.81;5005862;28;20419;-59
2024/02/09 07:10:22;;;;;;;3.10;0.55;;;;;;;9.31;88.06;96017.41;4999295;28;20046;-50
2024/02/09 07:12:51;;;;;;;2.92;0.60;;;;;;;9.31;88.22;96020.00;5002562;28;20057;-50
2024/02/09 07:15:18;;;;;;;3.28;2.13;;;;;;;9.32;87.96;96019.09;5005795;28;20053;-50
2024/02/09 07:17:44;;;;;;;2.03;0.75;;;;;;;9.28;88.47;96013.28;5005671;28;20784;-57
2024/02/09 07:20:12;;;;;;;0.60;0.60;;;;;;;9.23;88.71;96007.56;4997554;28;20128;-58
2024/02/09 07:22:39;;;;;;;2.72;0.68;;;;;;;9.23;88.05;96008.38;4999189;28;20495;-55
2024/02/09 07:25:06;;;;;;;3.53;2.40;;;;;;;9.26;88.18;96015.94;5003513;28;20097;-50
2024/02/09 07:27:33;;;;;;;2.45;0.57;;;;;;;9.25;88.10;96009.13;5004012;28;20054;-56
2024/02/09 07:30:01;;;;;;;3.38;3.08;;;;;;;9.26;87.98;96008.19;5007799;28;20046;-52
2024/02/09 07:32:28;;;;;;;6.13;2.38;;;;;;;9.27;88.32;96016.78;5006350;28;20132;-51
2024/02/09 07:34:54;;;;;;;2.20;1.58;;;;;;;9.28;88.44;96012.47;5005944;28;20049;-54
2024/02/09 07:37:21;;;;;;;2.03;1.83;;;;;;;9.28;88.42;96017.63;5005905;28;20077;-50
2024/02/09 07:39:48;;;;;;;4.05;1.35;;;;;;;9.31;88.67;96017.41;5007396;28;20455;-57
2024/02/09 07:42:17;;;;;;;0.40;0.25;;;;;;;9.30;88.19;96020.91;5007230;28;20052;-58
2024/02/09 07:44:45;;;;;;;1.85;0.50;;;;;;;9.30;88.43;96020.91;5006024;28;20092;-56
2024/02/09 07:47:13;;;;;;;0.30;0.30;;;;;;;9.30;88.28;96020.91;5001142;28;20061;-55
2024/02/09 07:49:40;;;;;;;1.65;0.40;;;;;;;9.30;88.63;96018.34;4998765;28;20062;-52
2024/02/09 07:52:07;;;;;;;0.88;0.55;;;;;;;9.28;88.79;96022.78;5006331;28;20557;-54
2024/02/09 07:54:35;;;;;;;0.47;0.40;;;;;;;9.25;88.80;96023.78;5003143;28;20140;-53
2024/02/09 07:57:02;;;;;;;0.50;0.32;;;;;;;9.23;89.00;96035.97;4999842;28;20054;-52
2024/02/09 07:59:31;;;;;;;0.40;0.40;;;;;;;9.26;88.52;96025.47;5004612;28;20049;-56
2024/02/09 08:01:58;;;;;;;2.60;2.00;;;;;;;9.29;88.78;96034.78;5000517;28;20060;-51
2024/02/09 08:04:28;;;;;;;2.88;2.10;;;;;;;9.29;88.20;96037.34;5001306;28;20060;-57
2024/02/09 08:06:55;;;;;;;2.63;2.22;;;;;;;9.30;88.84;96042.41;5002408;28;20070;-52
2024/02/09 08:09:21;;;;;;;2.03;1.83;;;;;;;9.31;88.46;96038.06;5000754;28;20065;-49
2024/02/09 08:11:49;;;;;;;2.83;2.60;;;;;;;9.29;88.93;96035.56;5000710;28;20507;-53
2024/02/09 08:14:15;;;;;;;0.50;0.40;;;;;;;9.36;88.08;96036.03;5003560;28;20046;-51
2024/02/09 08:16:46;;;;;;;0.65;0.25;;;;;;;9.41;88.30;96034.00;5000479;28;20050;-57
2024/02/09 08:19:13;;;;;;;0.60;0.50;;;;;;;9.40;88.55;96042.69;5003512;28;20548;-56
2024/02/09 08:21:40;;;;;;;2.08;1.98;;;;;;;9.38;89.11;96039.34;5002119;28;20062;-59
2024/02/09 08:24:10;;;;;;;1.75;1.65;;;;;;;9.36;88.71;96046.38;4994917;28;20127;-59
2024/02/09 08:26:36;;;;;;;0.40;0.40;;;;;;;9.40;89.02;96045.25;4998048;28;20507;-54
2024/02/09 08:29:18;;;;;;;0.95;0.30;;;;;;;9.43;88.80;96050.25;4999415;28;20107;-57
2024/02/09 08:31:45;;;;;;;1.15;0.60;;;;;;;9.47;88.83;96043.94;5000226;28;20058;-57
2024/02/09 08:34:12;;;;;;;1.38;0.57;;;;;;;9.46;89.53;96042.28;4995615;28;21324;-57
2024/02/09 08:36:42;;;;;;;3.53;0.30;;;;;;;9.47;88.96;96043.94;5005260;28;20045;-58
2024/02/09 08:39:08;;;;;;;0.77;0.52;;;;;;;9.49;89.08;96047.25;4999559;28;20063;-56
2024/02/09 08:41:35;;;;;;;0.43;0.20;;;;;;;9.54;88.94;96053.88;5004656;28;20050;-51
2024/02/09 08:44:02;;;;;;;2.80;2.63;;;;;;;9.56;89.05;96049.47;5000604;28;20059;-57
2024/02/09 08:46:28;;;;;;;0.40;0.30;;;;;;;9.55;88.92;96058.16;5007425;28;20053;-57
2024/02/09 08:48:57;;;;;;;1.52;0.43;;;;;;;9.60;88.49;96061.25;5007260;28;20053;-56
2024/02/09 08:51:24;;;;;;;2.42;2.25;;;;;;;9.60;88.38;96058.69;5003993;28;20068;-54
2024/02/09 08:53:51;;;;;;;1.90;0.28;;;;;;;9.63;88.65;96054.13;5003261;28;20083;-51
2024/02/09 08:56:17;;;;;;;2.67;2.20;;;;;;;9.63;88.69;96059.28;5004945;28;20470;-48
2024/02/09 08:58:46;;;;;;;2.55;0.70;;;;;;;9.68;89.00;96053.00;5004781;28;20064;-52
2024/02/09 09:01:13;;;;;;;1.75;1.45;;;;;;;9.71;88.79;96051.06;5007212;28;20058;-60
2024/02/09 09:03:40;;;;;;;1.23;0.22;;;;;;;9.79;88.61;96052.34;5006356;28;20074;-48
2024/02/09 09:06:07;;;;;;;1.73;1.63;;;;;;;9.82;88.34;96052.13;5005636;28;20050;-52
2024/02/09 09:08:34;;;;;;;6.43;0.63;;;;;;;9.88;88.71;96062.06;5002738;28;20046;-54
2024/02/09 09:11:01;;;;;;;1.98;1.88;;;;;;;9.91;89.09;96067.06;5000577;28;20155;-59
2024/02/09 09:13:32;;;;;;;3.15;0.73;;;;;;;9.97;88.33;96064.06;5002166;28;20070;-61
2024/02/09 09:15:58;;;;;;;1.42;0.45;;;;;;;10.00;88.89;96063.88;4998236;28;20847;-49
2024/02/09 09:18:29;;;;;;;2.05;0.40;;;;;;;10.03;88.62;96068.84;5002875;28;20060;-52
2024/02/09 09:20:56;;;;;;;3.53;0.57;;;;;;;10.05;89.06;96073.09;4999785;28;20073;-52
2024/02/09 09:23:22;;;;;;;1.52;0.30;;;;;;;10.08;88.84;96070.31;5002303;28;20053;-52
2024/02/09 09:25:49;;;;;;;1.65;0.40;;;;;;;10.08;88.41;96078.06;5003007;28;20046;-52
2024/02/09 09:28:18;;;;;;;3.92;1.25;;;;;;;10.10;88.25;96071.03;5007655;28;20453;-55
2024/02/09 09:30:46;;;;;;;3.00;0.80;;;;;;;10.09;88.17;96077.97;5001750;28;20050;-51
2024/02/09 09:33:12;;;;;;;1.55;0.60;;;;;;;10.08;88.35;96073.72;5003376;28;20144;-58
2024/02/09 09:35:40;;;;;;;2.20;2.08;;;;;;;10.10;88.34;96076.22;5004834;28;20790;-55
2024/02/09 09:38:07;;;;;;;2.10;0.30;;;;;;;10.06;88.39;96085.09;5004999;28;20050;-58
2024/02/09 09:40:35;;;;;;;3.17;0.30;;;;;;;10.08;87.60;96078.06;5007718;28;20045;-54
2024/02/09 09:43:04;;;;;;;3.70;0.55;;;;;;;10.06;87.67;96085.09;5001814;28;20064;-54
2024/02/09 09:45:33;;;;;;;1.48;0.57;;;;;;;10.08;88.07;96083.22;5000813;28;20088;-59
2024/02/09 09:48:04;;;;;;;4.88;0.22;;;;;;;10.13;87.92;96081.16;5007047;28;20057;-57
2024/02/09 09:50:32;;;;;;;3.72;2.67;;;;;;;10.14;87.98;96077.66;5001936;28;20054;-49
2024/02/09 09:53:02;;;;;;;1.63;0.40;;;;;;;10.15;88.11;96089.66;5004397;28;20053;-57
2024/02/09 09:55:34;;;;;;;2.35;0.50;;;;;;;10.13;87.39;96092.34;5004999;28;20133;-53
2024/02/09 09:58:02;;;;;;;4.05;0.63;;;;;;;10.15;88.13;96084.50;5006032;28;20050;-59
2024/02/09 10:00:29;;;;;;;1.83;0.43;;;;;;;10.16;88.16;96089.56;4998746;28;20054;-57
2024/02/09 10:02:56;;;;;;;2.15;0.88;;;;;;;10.18;87.66;96094.66;5000870;28;20054;-56
2024/02/09 10:05:23;;;;;;;1.98;0.45;;;;;;;10.16;87.69;96096.47;5002161;28;20076;-58
2024/02/09 10:07:52;;;;;;;1.50;1.40;;;;;;;10.15;87.70;96098.25;5003541;28;20690;-59
2024/02/09 10:10:25;;;;;;;4.80;0.70;;;;;;;10.19;87.55;96091.13;5005440;28;20133;-59
2024/02/09 10:13:11;;;;;;;2.47;0.40;;;;;;;10.12;87.74;96092.44;5005546;28;20534;-55
2024/02/09 10:15:41;;;;;;;2.53;0.30;;;;;;;10.11;88.14;96089.06;5002901;28;20049;-55
2024/02/09 10:18:10;;;;;;;1.95;0.93;;;;;;;10.15;87.79;96095.69;5000415;28;20142;-56
2024/02/09 10:20:39;;;;;;;5.70;0.77;;;;;;;10.09;88.21;96105.56;5000148;28;20049;-54
2024/02/09 10:23:06;;;;;;;3.80;0.63;;;;;;;10.17;87.57;96108.50;5001654;28;20061;-51
2024/02/09 10:25:33;;;;;;;0.68;0.30;;;;;;;10.16;87.46;96106.81;5004634;28;20049;-53
2024/02/09 10:28:01;;;;;;;5.65;0.75;;;;;;;10.18;87.68;96105.00;5000384;28;20108;-59
2024/02/09 10:30:29;;;;;;;5.57;0.50;;;;;;;10.25;87.97;96103.66;4999835;28;20052;-51
2024/02/09 10:32:58;;;;;;;1.83;0.70;;;;;;;10.18;87.99;96105.00;5009400;28;20049;-53
2024/02/09 10:35:25;;;;;;;3.15;0.60;;;;;;;10.26;87.67;96113.06;4998197;28;20042;-57
2024/02/09 10:37:52;;;;;;;3.53;1.50;;;;;;;10.31;87.24;96109.34;4991148;28;20041;-52
2024/02/09 10:40:21;;;;;;;2.35;1.02;;;;;;;10.40;88.17;96108.75;5002646;28;20049;-61
2024/02/09 10:42:51;;;;;;;5.50;2.25;;;;;;;10.41;86.87;96115.59;4995926;28;20049;-57
2024/02/09 10:45:20;;;;;;;3.40;0.52;;;;;;;10.44;86.90;96115.41;5005185;28;20050;-53
2024/02/09 10:47:53;;;;;;;;;;;;;;;10.37;88.19;96119.31;5000473;28;20097;-58
2024/02/09 10:50:22;;;;;;;1.45;0.80;;;;;;;10.43;87.80;96111.13;5002189;28;20446;-55
2024/02/09 10:52:50;;;;;;;1.85;0.35;;;;;;;10.44;87.20;96114.56;5005722;28;20058;-56
2024/02/09 10:55:22;;;;;;;1.67;0.32;;;;;;;10.50;87.08;96115.00;4995474;28;20046;-50
2024/02/09 10:57:51;;;;;;;7.93;0.75;;;;;;;10.61;87.80;96121.25;5004997;28;20124;-50
2024/02/09 11:00:19;;;;;;;4.35;1.10;;;;;;;10.65;87.16;96127.88;5010124;28;20041;-53
2024/02/09 11:02:46;;;;;;;2.38;0.40;;;;;;;10.70;86.84;96119.81;4991550;28;20053;-56
2024/02/09 11:05:14;;;;;;;4.32;0.40;;;;;;;10.79;86.73;96120.03;5008605;28;20050;-58
2024/02/09 11:07:43;;;;;;;3.88;1.42;;;;;;;10.83;86.85;96119.81;5004457;28;20429;-52
2024/02/09 11:10:14;;;;;;;2.50;0.75;;;;;;;10.85;87.64;96125.72;5016289;28;20055;-58
2024/02/09 11:12:41;;;;;;;1.08;0.50;;;;;;;10.89;87.74;96124.56;5001174;28;20054;-54
2024/02/09 11:15:16;;;;;;;2.05;0.70;;;;;;;10.90;86.41;96121.03;5007771;28;20065;-56
2024/02/09 11:17:45;;;;;;;3.55;1.33;;;;;;;10.93;87.16;96129.44;5007205;28;20057;-54
2024/02/09 11:20:13;;;;;;;5.03;0.82;;;;;;;10.96;87.34;96125.81;5004957;28;20050;-56
2024/02/09 11:22:45;;;;;;;2.90;2.22;;;;;;;10.97;87.10;96127.47;5002342;28;20052;-59
2024/02/09 11:25:14;;;;;;;3.17;2.25;;;;;;;10.92;86.74;96129.56;5036632;28;20041;-55
2024/02/09 11:27:47;;;;;;;5.38;1.65;;;;;;;10.89;87.36;96124.56;5009102;28;20042;-53
2024/02/09 11:30:14;;;;;;;2.22;0.60;;;;;;;10.90;86.49;96136.56;5003487;28;20046;-57
2024/02/09 11:32:45;;;;;;;2.67;0.32;;;;;;;10.93;86.63;96128.63;5008945;28;20057;-55
2024/02/09 11:35:14;;;;;;;0.90;0.30;;;;;;;10.93;86.09;96132.03;4999576;28;20053;-56
2024/02/09 11:37:44;;;;;;;1.58;0.70;;;;;;;10.94;86.00;96130.25;5007684;28;20057;-53
2024/02/09 11:40:13;;;;;;;1.10;0.63;;;;;;;10.97;85.78;96131.84;5013312;28;20073;-54
2024/02/09 11:42:42;;;;;;;1.95;0.50;;;;;;;11.01;85.83;96136.69;5009571;28;20077;-53
2024/02/09 11:45:09;;;;;;;2.03;0.82;;;;;;;11.00;86.14;96137.63;5009598;28;20042;-58
2024/02/09 11:47:39;;;;;;;1.77;0.82;;;;;;;11.04;86.01;96139.06;5010633;28;20116;-62
2024/02/09 11:50:21;;;;;;;2.33;0.70;;;;;;;11.02;86.08;96135.75;5002990;28;20483;-57
2024/02/09 11:52:48;;;;;;;0.73;0.45;;;;;;;11.02;86.49;96143.50;5005020;28;20068;-54
2024/02/09 11:55:39;;;;;;;2.63;0.77;;;;;;;11.07;85.87;96145.00;5002308;28;20136;-49
2024/02/09 11:58:08;;;;;;;3.85;1.02;;;;;;;11.09;86.99;96149.13;5008010;28;20053;-55
2024/02/09 12:00:36;;;;;;;1.30;0.95;;;;;;;11.07;86.58;96147.59;5014454;28;20054;-53
2024/02/09 12:03:04;;;;;;;3.25;1.05;;;;;;;11.10;86.68;96143.00;5003662;28;20065;-54
2024/02/09 12:05:32;;;;;;;2.70;1.25;;;;;;;11.10;85.87;96142.16;4996397;28;20058;-53
2024/02/09 12:07:59;;;;;;;2.67;0.90;;;;;;;11.08;85.88;96146.66;5006592;28;20042;-57
2024/02/09 12:10:26;;;;;;;2.67;1.10;;;;;;;11.10;86.08;96149.94;5005797;28;20058;-59
2024/02/09 12:12:53;;;;;;;3.30;0.60;;;;;;;11.10;86.89;96147.34;5003257;28;20054;-58
2024/02/09 12:15:19;;;;;;;2.88;0.68;;;;;;;11.09;85.44;96151.72;5003606;28;20050;-50
2024/02/09 12:17:49;;;;;;;3.95;1.30;;;;;;;11.11;86.50;96159.38;4997674;28;20133;-58
2024/02/09 12:20:17;;;;;;;2.03;0.63;;;;;;;11.12;85.88;96154.09;5003497;28;20142;-55
2024/02/09 12:22:45;;;;;;;4.30;0.93;;;;;;;11.11;86.50;96161.97;4999145;28;20112;-53
2024/02/09 12:25:16;;;;;;;1.92;0.85;;;;;;;11.13;86.27;96160.09;5000782;28;20072;-59
2024/02/09 12:27:46;;;;;;;1.05;0.57;;;;;;;11.10;86.63;96163.72;4985788;28;20610;-61
2024/02/09 12:30:14;;;;;;;2.47;0.47;;;;;;;11.05;85.70;96171.00;5008547;28;20049;-56
2024/02/09 12:32:41;;;;;;;2.20;0.90;;;;;;;11.07;85.53;96157.94;4996969;28;20423;-57
2024/02/09 12:35:10;;;;;;;1.42;0.50;;;;;;;11.07;85.71;96168.28;5003776;28;20874;-50
2024/02/09 12:37:37;;;;;;;2.42;1.13;;;;;;;11.08;86.87;96169.94;5004606;28;20050;-59
2024/02/09 12:40:06;;;;;;;1.02;0.30;;;;;;;11.05;86.47;96171.78;5008485;28;20058;-52
2024/02/09 12:42:36;;;;;;;1.42;0.47;;;;;;;11.05;86.61;96182.16;5002072;28;20080;-55
2024/02/09 12:45:03;;;;;;;;;;;;;;;10.98;86.27;96188.66;5007854;28;20065;-56
2024/02/09 12:47:29;;;;;;;2.30;0.82;;;;;;;11.05;86.65;96186.53;5005013;28;20363;-56
2024/02/09 12:49:57;;;;;;;2.22;0.90;;;;;;;11.08;85.51;96186.28;5005325;28;20046;-52
2024/02/09 12:52:30;;;;;;;1.30;0.52;;;;;;;11.11;86.49;96195.66;5009197;28;20046;-60
2024/02/09 12:54:57;;;;;;;2.45;0.57;;;;;;;11.05;85.84;96191.69;5007956;28;20061;-52
2024/02/09 12:57:24;;;;;;;3.25;0.60;;;;;;;11.09;85.44;96192.31;5008068;28;20057;-54
2024/02/09 12:59:53;;;;;;;3.40;1.42;;;;;;;11.12;85.90;96189.53;5011019;28;20157;-54
2024/02/09 13:02:22;;;;;;;3.10;0.90;;;;;;;11.13;86.22;96188.59;5008633;28;20053;-55
2024/02/09 13:04:50;;;;;;;2.72;0.80;;;;;;;11.18;86.14;96189.94;5005224;28;20049;-55
2024/02/09 13:07:17;;;;;;;1.55;0.50;;;;;;;11.22;86.21;96187.97;5007241;28;20046;-56
2024/02/09 13:09:44;;;;;;;2.38;0.77;;;;;;;11.25;86.72;96195.53;5007533;28;20078;-58
2024/02/09 13:12:11;;;;;;;2.03;0.47;;;;;;;11.29;85.33;96198.75;5011845;28;20060;-53
2024/02/09 13:14:37;;;;;;;2.20;0.40;;;;;;;11.34;85.53;96201.84;5008208;28;20061;-62
2024/02/09 13:17:06;;;;;;;2.70;0.52;;;;;;;11.38;85.26;96194.72;5010664;28;20049;-59
2024/02/09 13:19:34;;;;;;;5.38;2.83;;;;;;;11.40;86.46;96200.59;5003229;28;20045;-54
2024/02/09 13:22:04;;;;;;;8.75;4.53;;;;;;;11.44;86.44;96207.22;5002479;28;20419;-57
2024/02/09 13:24:33;;;;;;;3.72;1.80;;;;;;;11.48;86.53;96203.50;5005716;28;20045;-56
2024/02/09 13:26:59;;;;;;;4.85;1.30;;;;;;;11.54;85.82;96200.50;5005523;28;20560;-49
2024/02/09 13:29:27;;;;;;;3.33;0.73;;;;;;;11.63;85.75;96203.38;5003507;28;20054;-55
2024/02/09 13:31:54;;;;;;;1.63;1.10;;;;;;;11.67;85.55;96203.06;5006766;28;20061;-62
2024/02/09 13:34:21;;;;;;;2.35;0.80;;;;;;;11.75;85.43;96205.13;5006521;28;20054;-52